Decoded Metar for LFKC (CALVI in CORSE ISL.) (IATA:CLY) | Meteo·Mobile Aviation Weather
aviador You're here:

LFKC Decoded Metar

CALVI in CORSE ISL.
Report Time2019-10-19 23:00:00
UTC Time2019-10-19 23:16:47
Flight Rules vfr VFR
Wind200° at 07 kt
W.Decomp.*RWY 18: 6.6 kt HW 2.3 kt RCW
Visibility9999 m
Phenomena:N/A
Clouds:N/A
Expected CloudBase > 1,600 ft AGL from Temp-Dew spread
CeilingNone
Temp16°C (ISA +1)
Dew Point12°C (77% RH)
AAT14.1°C
QNH1014 hPa
Density Alt509 ft
Elevation190 ft
Report Wrong Elevation
Raw Report
LFKC 192300Z AUTO 20007KT CAVOK 16/12 Q1014=

Extra information for LFKC:More info

Metar Taf Metar & Taf Last 4 Metars F.Rules Stats Wind Profile Meteogram Temp Stats Airport Information Weather charts Add Link Nearby VenuesMetar ALERT Operation Metar Decoded Social comments